Time;durP1;ratioP1;P1;durP2;ratioP2;P2;SDS_P1;SDS_P2;PMS_P1;PMS_P2;Temp;Humidity;BMP_temperature;BMP_pressure;BME280_temperature;BME280_humidity;BME280_pressure;Samples;Min_cycle;Max_cycle;Signal;HPM_P1;HPM_P2
2020/12/26 00:01:15;;;;;;;8.85;5.18;;;;;;;-1.74;87.43;101697.03;5157218;27;20271;-59
2020/12/26 00:03:41;;;;;;;12.75;5.18;;;;;;;-1.93;88.30;101698.50;5157484;27;20609;-61
2020/12/26 00:06:08;;;;;;;15.70;5.45;;;;;;;-1.99;89.48;101694.41;5156026;27;20248;-58
2020/12/26 00:08:35;;;;;;;14.38;6.50;;;;;;;-1.84;89.09;101690.97;5157698;27;20198;-59
2020/12/26 00:11:02;;;;;;;16.05;5.55;;;;;;;-1.68;88.55;101697.69;5155889;27;20328;-55
2020/12/26 00:13:29;;;;;;;15.07;7.15;;;;;;;-1.68;88.08;101695.16;5157422;27;20224;-57
2020/12/26 00:15:56;;;;;;;13.73;6.65;;;;;;;-1.69;88.11;101703.47;5155879;27;20325;-57
2020/12/26 00:18:22;;;;;;;15.27;6.82;;;;;;;-1.59;87.85;101697.75;5157677;27;20511;-58
2020/12/26 00:20:49;;;;;;;14.38;6.75;;;;;;;-1.72;88.05;101695.53;5156073;27;20570;-57
2020/12/26 00:23:16;;;;;;;19.48;5.90;;;;;;;-1.88;87.96;101687.94;5157305;27;20626;-58
2020/12/26 00:25:44;;;;;;;16.35;8.63;;;;;;;-1.72;87.74;101687.94;5155523;27;20268;-57
2020/12/26 00:28:12;;;;;;;12.77;7.60;;;;;;;-1.68;87.71;101688.47;5157348;27;20567;-60
2020/12/26 00:30:38;;;;;;;16.08;6.90;;;;;;;-1.64;87.28;101680.44;5156041;27;20238;-60
2020/12/26 00:33:05;;;;;;;22.95;9.25;;;;;;;-1.63;87.22;101682.22;5157184;27;20218;-57
2020/12/26 00:35:32;;;;;;;18.10;7.90;;;;;;;-1.72;87.46;101682.88;5155516;27;20647;-57
2020/12/26 00:37:58;;;;;;;12.40;6.90;;;;;;;-1.76;88.04;101674.06;5157514;27;20300;-58
2020/12/26 00:40:25;;;;;;;17.88;7.35;;;;;;;-1.74;87.96;101679.31;5156222;27;20233;-57
2020/12/26 00:42:53;;;;;;;13.80;7.40;;;;;;;-1.82;88.33;101679.41;5157080;27;20293;-58
2020/12/26 00:45:19;;;;;;;16.23;7.55;;;;;;;-1.72;88.11;101676.22;5155373;27;20261;-59
2020/12/26 00:47:46;;;;;;;21.98;9.70;;;;;;;-1.82;88.62;101684.47;5157139;27;20194;-58
2020/12/26 00:50:13;;;;;;;13.20;7.70;;;;;;;-1.81;89.42;101676.13;5155333;27;20699;-58
2020/12/26 00:52:40;;;;;;;19.23;8.85;;;;;;;-1.83;89.49;101670.00;5157387;27;20222;-57
2020/12/26 00:55:06;;;;;;;16.73;8.60;;;;;;;-1.59;88.46;101668.25;5152681;27;20240;-60
2020/12/26 00:57:33;;;;;;;14.38;8.07;;;;;;;-1.48;88.65;101665.97;5157039;27;20194;-58
2020/12/26 01:00:01;;;;;;;16.65;7.80;;;;;;;-1.75;88.75;101659.81;5155956;27;20265;-58
2020/12/26 01:02:27;;;;;;;17.05;9.52;;;;;;;-1.70;89.23;101661.19;5157077;27;20293;-58
2020/12/26 01:04:54;;;;;;;19.10;10.50;;;;;;;-1.65;89.17;101657.50;5155266;27;20241;-60
2020/12/26 01:07:21;;;;;;;18.65;7.95;;;;;;;-1.80;89.86;101656.78;5157307;27;20569;-58
2020/12/26 01:09:48;;;;;;;19.40;8.80;;;;;;;-1.83;89.99;101666.56;5158566;27;20245;-59
2020/12/26 01:12:14;;;;;;;15.73;9.10;;;;;;;-1.78;89.75;101666.31;5160773;27;20228;-56
2020/12/26 01:14:42;;;;;;;18.85;9.50;;;;;;;-1.86;90.12;101669.66;5159104;27;20291;-61
2020/12/26 01:17:09;;;;;;;21.40;10.05;;;;;;;-1.80;90.06;101662.72;5160673;27;20207;-57
2020/12/26 01:19:54;;;;;;;21.25;10.40;;;;;;;-1.86;89.97;101662.09;5159427;27;20248;-56
2020/12/26 01:22:21;;;;;;;19.20;9.77;;;;;;;-1.83;90.40;101667.50;5160485;27;20284;-58
2020/12/26 01:24:48;;;;;;;25.27;10.32;;;;;;;-1.64;89.15;101669.44;5158864;27;20251;-60
2020/12/26 01:27:15;;;;;;;23.05;11.25;;;;;;;-1.57;89.11;101661.75;5160579;27;20221;-55
2020/12/26 01:29:45;;;;;;;19.67;10.50;;;;;;;-1.51;88.65;101661.47;5159162;27;20241;-58
2020/12/26 01:32:13;;;;;;;18.35;10.30;;;;;;;-1.53;88.91;101668.03;5160448;27;20256;-57
2020/12/26 01:34:39;;;;;;;26.95;11.48;;;;;;;-1.48;89.05;101671.03;5158594;27;20257;-57
2020/12/26 01:37:06;;;;;;;24.98;12.40;;;;;;;-1.48;88.84;101659.28;5160179;27;20202;-56
2020/12/26 01:39:33;;;;;;;20.38;12.63;;;;;;;-1.32;88.06;101661.78;5159011;27;20267;-56
2020/12/26 01:41:59;;;;;;;19.40;11.07;;;;;;;-1.66;89.01;101656.59;5159970;27;20643;-56
2020/12/26 01:44:26;;;;;;;23.95;11.73;;;;;;;-1.57;88.92;101665.91;5158304;27;20230;-56
2020/12/26 01:46:53;;;;;;;20.75;12.45;;;;;;;-1.50;88.98;101655.69;5160041;27;20575;-58
2020/12/26 01:49:20;;;;;;;18.05;10.73;;;;;;;-1.32;88.84;101653.28;5158827;27;20233;-56
2020/12/26 01:51:47;;;;;;;21.80;11.50;;;;;;;-1.40;88.52;101650.84;5159774;27;20668;-57
2020/12/26 01:54:14;;;;;;;22.15;10.98;;;;;;;-0.99;87.26;101655.88;5157967;27;20240;-56
2020/12/26 01:56:42;;;;;;;24.27;13.55;;;;;;;-1.11;87.13;101647.91;5160103;27;20218;-56
2020/12/26 01:59:09;;;;;;;23.05;11.85;;;;;;;-1.00;86.84;101651.53;5158504;27;20249;-57
2020/12/26 02:01:40;;;;;;;22.83;12.40;;;;;;;-1.19;87.17;101656.34;5159605;27;20210;-57
2020/12/26 02:04:09;;;;;;;19.27;11.75;;;;;;;-1.11;87.78;101644.47;5143216;27;20313;-57
2020/12/26 02:06:42;;;;;;;27.63;14.35;;;;;;;-1.11;87.05;101629.28;5150483;27;20230;-58
2020/12/26 02:09:11;;;;;;;24.25;12.50;;;;;;;-1.16;87.09;101630.44;5157175;27;20253;-57
2020/12/26 02:11:38;;;;;;;23.45;13.45;;;;;;;-1.23;87.45;101637.41;5157687;27;20214;-55
2020/12/26 02:14:05;;;;;;;26.92;14.65;;;;;;;-1.24;87.37;101637.22;5156924;27;20321;-56
2020/12/26 02:16:42;;;;;;;23.08;12.98;;;;;;;-1.24;87.54;101638.13;5158416;27;20275;-56
2020/12/26 02:19:09;;;;;;;24.48;14.48;;;;;;;-1.28;87.38;101630.06;5156689;27;20639;-59
2020/12/26 02:21:36;;;;;;;35.28;15.13;;;;;;;-1.24;87.28;101627.09;5157841;27;20651;-59
2020/12/26 02:24:03;;;;;;;27.10;13.07;;;;;;;-1.30;87.22;101636.59;5155903;27;20517;-59
2020/12/26 02:26:30;;;;;;;24.38;13.40;;;;;;;-1.27;86.72;101634.41;5157818;27;20237;-57
2020/12/26 02:28:57;;;;;;;29.80;14.10;;;;;;;-1.40;87.20;101633.13;5156331;27;20237;-57
2020/12/26 02:31:24;;;;;;;29.73;13.63;;;;;;;-1.56;88.38;101628.09;5157296;27;20314;-59
2020/12/26 02:33:51;;;;;;;23.30;11.23;;;;;;;-1.99;89.34;101652.31;5156551;27;20230;-57
2020/12/26 02:36:18;;;;;;;23.65;11.18;;;;;;;-1.90;90.33;101640.63;5157287;27;20344;-56
2020/12/26 02:38:45;;;;;;;23.75;13.15;;;;;;;-1.94;90.52;101633.44;5156694;27;20202;-61
2020/12/26 02:41:13;;;;;;;32.83;15.45;;;;;;;-1.80;90.21;101622.25;5157174;27;20290;-61
2020/12/26 02:43:40;;;;;;;25.00;12.18;;;;;;;-2.00;90.09;101632.78;5151673;27;20285;-57
2020/12/26 02:46:07;;;;;;;28.48;16.13;;;;;;;-1.80;90.07;101626.44;5154649;27;20245;-56
2020/12/26 02:48:34;;;;;;;30.27;15.10;;;;;;;-2.02;90.60;101623.25;5156291;27;20301;-59
2020/12/26 02:51:01;;;;;;;28.77;13.45;;;;;;;-1.99;90.65;101626.09;5155456;27;20230;-58
2020/12/26 02:53:28;;;;;;;28.85;14.13;;;;;;;-2.14;90.51;101620.31;5156378;27;20244;-56
2020/12/26 02:55:54;;;;;;;33.47;16.42;;;;;;;-2.00;90.51;101626.84;5154298;27;20240;-59
2020/12/26 02:58:22;;;;;;;35.38;17.27;;;;;;;-1.82;89.91;101622.81;5156594;27;20209;-57
2020/12/26 03:00:50;;;;;;;38.95;16.35;;;;;;;-1.83;89.69;101627.00;5154143;27;20282;-59
2020/12/26 03:03:17;;;;;;;35.13;16.30;;;;;;;-1.94;89.77;101618.25;5156383;27;20212;-59
2020/12/26 03:05:43;;;;;;;36.03;17.10;;;;;;;-2.14;90.43;101613.63;5154092;27;20237;-59
2020/12/26 03:08:10;;;;;;;33.53;15.93;;;;;;;-2.09;90.78;101609.06;5156217;27;20206;-60
2020/12/26 03:10:37;;;;;;;39.38;17.58;;;;;;;-2.24;91.11;101606.69;5155137;27;20521;-59
2020/12/26 03:13:04;;;;;;;38.38;17.13;;;;;;;-2.23;90.92;101600.00;5155732;27;20240;-60
2020/12/26 03:15:31;;;;;;;27.50;12.85;;;;;;;-2.11;90.72;101601.28;5154136;27;20248;-56
2020/12/26 03:17:58;;;;;;;42.90;16.63;;;;;;;-2.19;90.63;101599.59;5156094;27;20587;-60
2020/12/26 03:20:25;;;;;;;53.63;16.55;;;;;;;-2.19;90.55;101584.41;5154384;27;20237;-60
2020/12/26 03:22:51;;;;;;;26.10;12.15;;;;;;;-2.25;90.89;101587.16;5155897;27;20504;-58
2020/12/26 03:25:20;;;;;;;29.80;14.32;;;;;;;-2.26;90.77;101589.56;5153815;27;20249;-60
2020/12/26 03:27:47;;;;;;;28.95;14.82;;;;;;;-2.15;90.68;101580.59;5155967;27;20293;-60
2020/12/26 03:30:14;;;;;;;31.80;15.82;;;;;;;-2.19;90.27;101586.94;5152303;27;20249;-57
2020/12/26 03:32:41;;;;;;;34.38;15.85;;;;;;;-2.01;89.75;101582.06;5155476;27;20234;-60
2020/12/26 03:35:09;;;;;;;38.90;15.73;;;;;;;-1.96;89.53;101576.72;5153412;27;20274;-61
2020/12/26 03:37:39;;;;;;;32.03;15.73;;;;;;;-2.21;90.24;101583.38;5154377;27;20232;-60
2020/12/26 03:40:08;;;;;;;32.60;14.45;;;;;;;-2.04;89.97;101586.03;5146295;27;20277;-60
2020/12/26 03:42:35;;;;;;;27.58;14.32;;;;;;;-2.19;90.08;101581.88;5155458;27;20198;-58
2020/12/26 03:45:01;;;;;;;37.10;17.77;;;;;;;-2.05;90.02;101575.78;5154436;27;20257;-58
2020/12/26 03:47:30;;;;;;;39.33;18.92;;;;;;;-2.07;89.84;101575.59;5155473;27;20262;-61
2020/12/26 03:49:58;;;;;;;34.65;17.70;;;;;;;-1.83;88.97;101566.28;5147428;27;20341;-60
2020/12/26 03:52:25;;;;;;;47.60;21.13;;;;;;;-1.84;89.03;101558.50;5155330;27;20221;-60
2020/12/26 03:54:51;;;;;;;32.13;16.48;;;;;;;-1.90;89.32;101561.28;5134385;27;20334;-60
2020/12/26 03:57:18;;;;;;;33.08;15.55;;;;;;;-1.74;89.06;101565.44;5147650;27;20214;-57
2020/12/26 03:59:44;;;;;;;27.20;14.95;;;;;;;-1.56;88.49;101548.72;5152437;27;20234;-58
2020/12/26 04:02:11;;;;;;;31.77;15.70;;;;;;;-1.64;88.61;101547.94;5155348;27;20206;-59
2020/12/26 04:04:38;;;;;;;25.00;13.32;;;;;;;-1.81;88.87;101546.16;5139645;27;20320;-58
2020/12/26 04:07:05;;;;;;;31.20;15.93;;;;;;;-1.62;88.55;101543.94;5155147;27;20241;-57
2020/12/26 04:09:32;;;;;;;29.08;15.35;;;;;;;-1.71;89.01;101540.44;5154596;27;20241;-58
2020/12/26 04:11:58;;;;;;;29.38;15.20;;;;;;;-1.78;89.05;101534.72;5156559;27;20703;-58
2020/12/26 04:14:25;;;;;;;41.25;19.92;;;;;;;-1.77;89.36;101535.63;5155813;27;20325;-59
2020/12/26 04:16:56;;;;;;;28.60;13.73;;;;;;;-1.77;89.49;101535.63;5157878;27;20194;-59
2020/12/26 04:19:23;;;;;;;24.42;15.48;;;;;;;-1.80;89.46;101536.22;5151350;27;20691;-56
2020/12/26 04:21:53;;;;;;;33.00;15.35;;;;;;;-1.57;89.23;101534.28;5157500;27;20688;-56
2020/12/26 04:24:20;;;;;;;29.60;15.15;;;;;;;-1.59;89.19;101535.75;5156196;27;20309;-57
2020/12/26 04:26:47;;;;;;;30.10;14.68;;;;;;;-1.68;89.32;101523.97;5157471;27;20270;-58
2020/12/26 04:29:14;;;;;;;31.90;14.20;;;;;;;-1.75;89.92;101523.16;5151942;27;20321;-56
2020/12/26 04:31:41;;;;;;;29.90;13.80;;;;;;;-1.83;90.01;101515.66;5157287;27;20224;-57
2020/12/26 04:34:08;;;;;;;36.90;16.10;;;;;;;-1.81;90.56;101514.19;5154429;27;20229;-56
2020/12/26 04:36:35;;;;;;;31.58;15.32;;;;;;;-1.61;90.30;101505.22;5157112;27;20229;-56
2020/12/26 04:39:02;;;;;;;34.15;17.42;;;;;;;-1.52;90.25;101512.88;5144980;27;20198;-56
2020/12/26 04:41:32;;;;;;;29.52;13.90;;;;;;;-1.53;89.81;101506.88;5157250;27;20198;-55
2020/12/26 04:43:58;;;;;;;27.02;14.00;;;;;;;-1.55;90.07;101513.44;5159339;27;20202;-57
2020/12/26 04:46:27;;;;;;;26.08;13.45;;;;;;;-1.46;89.76;101521.09;5160926;27;20229;-58
2020/12/26 04:49:04;;;;;;;28.85;15.57;;;;;;;-1.32;89.62;101507.31;5159912;27;20233;-59
2020/12/26 04:51:38;;;;;;;34.10;15.95;;;;;;;-1.29;89.22;101511.78;5161045;27;20212;-57
2020/12/26 04:54:10;;;;;;;32.20;14.95;;;;;;;-1.33;89.66;101517.28;5159467;27;20241;-58
2020/12/26 04:56:42;;;;;;;26.08;13.45;;;;;;;-1.13;88.71;101514.25;5160493;27;20302;-59
2020/12/26 04:59:10;;;;;;;31.90;13.68;;;;;;;-1.40;89.77;101504.00;5142636;27;20518;-53
2020/12/26 05:01:40;;;;;;;35.90;13.32;;;;;;;-1.46;90.42;101505.91;5125923;27;20217;-57
2020/12/26 05:04:07;;;;;;;31.08;15.50;;;;;;;-1.38;90.67;101511.75;5128371;27;20369;-56
2020/12/26 05:06:47;;;;;;;35.92;15.25;;;;;;;-1.40;90.89;101508.16;5138980;27;20592;-56
2020/12/26 05:09:15;;;;;;;24.25;12.95;;;;;;;-1.33;90.57;101513.13;5138818;27;20234;-59
2020/12/26 05:11:50;;;;;;;28.48;13.18;;;;;;;-1.44;91.08;101514.53;5139997;27;20206;-57
2020/12/26 05:14:17;;;;;;;27.92;14.55;;;;;;;-1.29;90.83;101507.59;5128163;27;20230;-57
2020/12/26 05:16:44;;;;;;;30.88;14.88;;;;;;;-1.12;90.41;101510.97;5138977;27;20218;-58
2020/12/26 05:19:11;;;;;;;35.50;17.42;;;;;;;-1.03;90.30;101511.88;5137021;27;20600;-58
2020/12/26 05:21:37;;;;;;;30.05;15.05;;;;;;;-1.18;90.27;101503.63;5152241;27;20230;-58
2020/12/26 05:24:06;;;;;;;27.98;14.68;;;;;;;-1.18;90.91;101501.09;5158932;27;20299;-56
2020/12/26 05:26:39;;;;;;;30.92;15.55;;;;;;;-1.14;91.12;101494.69;5160369;27;20218;-57
2020/12/26 05:29:07;;;;;;;27.10;14.20;;;;;;;-1.06;90.77;101506.50;5141826;27;20235;-57
2020/12/26 05:31:44;;;;;;;30.48;14.30;;;;;;;-1.02;90.54;101493.38;5145031;27;20595;-57
2020/12/26 05:34:11;;;;;;;32.70;13.60;;;;;;;-1.10;90.85;101501.88;5156703;27;20670;-58
2020/12/26 05:36:38;;;;;;;28.45;14.75;;;;;;;-1.02;90.88;101498.47;5159969;27;20218;-55
2020/12/26 05:39:05;;;;;;;32.45;16.05;;;;;;;-1.04;90.84;101504.16;5160124;27;20204;-57
2020/12/26 05:41:32;;;;;;;27.35;14.30;;;;;;;-0.98;90.49;101508.16;5158214;27;20266;-56
2020/12/26 05:43:59;;;;;;;25.85;14.48;;;;;;;-0.97;90.82;101507.41;5159575;27;20221;-57
2020/12/26 05:46:26;;;;;;;28.17;14.35;;;;;;;-1.01;91.35;101499.38;5158249;27;20230;-58
2020/12/26 05:48:53;;;;;;;28.08;14.25;;;;;;;-0.84;90.66;101498.50;5159721;27;20199;-57
2020/12/26 05:51:26;;;;;;;31.25;14.93;;;;;;;-0.69;90.36;101505.13;5159568;27;20229;-58
2020/12/26 05:53:55;;;;;;;33.13;15.60;;;;;;;-0.76;90.42;101497.66;5111130;27;20287;-56
2020/12/26 05:56:23;;;;;;;31.25;15.10;;;;;;;-0.91;90.80;101494.50;5158177;27;20310;-58
2020/12/26 05:58:50;;;;;;;34.22;14.57;;;;;;;-0.81;91.39;101496.31;5130219;27;20321;-59
2020/12/26 06:01:20;;;;;;;40.08;15.00;;;;;;;-0.66;90.86;101493.47;5159361;27;20221;-58
2020/12/26 06:03:48;;;;;;;29.73;14.52;;;;;;;-0.71;90.53;101486.31;5147319;27;20313;-60
2020/12/26 06:06:15;;;;;;;23.85;13.13;;;;;;;-0.65;90.62;101486.03;5159823;27;20218;-58
2020/12/26 06:08:42;;;;;;;28.35;15.88;;;;;;;-0.66;91.04;101484.25;5159138;27;20234;-59
2020/12/26 06:11:12;;;;;;;32.05;15.50;;;;;;;-0.67;90.56;101477.38;5159639;27;20232;-58
2020/12/26 06:13:40;;;;;;;30.77;14.50;;;;;;;-0.62;90.83;101486.31;5156504;27;20230;-59
2020/12/26 06:16:10;;;;;;;29.00;14.57;;;;;;;-0.51;90.15;101482.31;5159110;27;20313;-57
2020/12/26 06:18:40;;;;;;;28.80;15.18;;;;;;;-0.38;89.49;101483.50;5158412;27;20631;-57
2020/12/26 06:21:09;;;;;;;27.83;14.82;;;;;;;-0.30;89.46;101482.63;5159663;27;20531;-58
2020/12/26 06:23:37;;;;;;;30.67;15.05;;;;;;;-0.42;89.56;101482.31;5158148;27;20244;-54
2020/12/26 06:26:04;;;;;;;26.30;14.77;;;;;;;-0.37;90.13;101478.59;5159264;27;20304;-57
2020/12/26 06:28:32;;;;;;;29.95;13.60;;;;;;;-0.34;90.16;101470.38;5157742;27;20512;-57
2020/12/26 06:31:00;;;;;;;33.92;15.07;;;;;;;-0.39;90.33;101476.66;5159526;27;20579;-57
2020/12/26 06:33:29;;;;;;;28.48;14.32;;;;;;;-0.47;90.38;101474.25;5157991;27;20229;-54
2020/12/26 06:35:57;;;;;;;31.20;15.20;;;;;;;-0.45;90.53;101475.28;5159238;27;20230;-55
2020/12/26 06:38:27;;;;;;;30.13;14.25;;;;;;;-0.46;91.22;101478.56;5157711;27;20241;-57
2020/12/26 06:41:01;;;;;;;30.00;14.45;;;;;;;-0.33;90.41;101477.25;5159076;27;20198;-58
2020/12/26 06:43:43;;;;;;;22.17;12.57;;;;;;;-0.35;90.56;101481.28;5157870;27;20237;-58
2020/12/26 06:46:30;;;;;;;17.30;8.57;;;;;;;-0.42;90.79;101482.31;5158520;27;20256;-54
2020/12/26 06:48:58;;;;;;;18.20;10.07;;;;;;;-0.59;91.60;101484.09;5158533;27;20232;-57
2020/12/26 06:51:25;;;;;;;24.65;11.73;;;;;;;-0.56;91.68;101476.78;5158740;27;20255;-57
2020/12/26 06:53:53;;;;;;;23.85;11.15;;;;;;;-0.57;91.97;101474.09;5158568;27;20707;-56
2020/12/26 06:56:45;;;;;;;19.45;10.68;;;;;;;-0.55;92.08;101486.19;5158505;27;20220;-57
2020/12/26 06:59:13;;;;;;;23.13;9.88;;;;;;;-0.61;92.39;101479.63;5158452;27;20220;-59
2020/12/26 07:01:41;;;;;;;18.67;9.50;;;;;;;-0.51;92.02;101479.75;5157413;27;20229;-57
2020/12/26 07:04:13;;;;;;;17.08;8.52;;;;;;;-0.55;91.98;101487.84;5158155;27;20194;-58
2020/12/26 07:06:40;;;;;;;29.75;10.52;;;;;;;-0.58;92.32;101487.50;5156655;27;20214;-60
2020/12/26 07:09:09;;;;;;;25.48;11.93;;;;;;;-0.54;92.31;101479.47;5158553;27;20194;-56
2020/12/26 07:11:43;;;;;;;17.15;9.50;;;;;;;-0.49;92.06;101475.75;5155408;27;20540;-59
2020/12/26 07:14:28;;;;;;;24.27;9.90;;;;;;;-0.45;92.23;101471.88;5158114;27;20643;-59
2020/12/26 07:16:55;;;;;;;28.05;10.75;;;;;;;-0.33;91.82;101470.53;5155393;27;20226;-58
2020/12/26 07:19:25;;;;;;;26.80;12.15;;;;;;;-0.07;91.25;101466.19;5158370;27;20578;-59
2020/12/26 07:21:52;;;;;;;28.05;11.48;;;;;;;-0.19;90.71;101464.28;5157192;27;20230;-56
2020/12/26 07:24:23;;;;;;;20.00;10.75;;;;;;;-0.26;91.28;101466.06;5157908;27;20233;-58
2020/12/26 07:26:49;;;;;;;20.80;10.40;;;;;;;-0.12;90.73;101470.81;5157326;27;20249;-57
2020/12/26 07:29:23;;;;;;;17.10;11.57;;;;;;;-0.21;90.62;101459.81;5158466;27;20194;-56
2020/12/26 07:31:50;;;;;;;23.17;10.35;;;;;;;-0.20;91.02;101467.53;5157072;27;20590;-56
2020/12/26 07:34:36;;;;;;;19.25;9.77;;;;;;;-0.19;91.02;101463.38;5157746;27;20218;-58
2020/12/26 07:37:03;;;;;;;15.88;8.73;;;;;;;-0.26;91.22;101455.91;5157018;27;20241;-58
2020/12/26 07:39:31;;;;;;;20.02;9.27;;;;;;;-0.15;90.92;101468.00;5158193;27;20260;-59
2020/12/26 07:41:57;;;;;;;33.60;10.50;;;;;;;-0.24;91.26;101465.47;5156762;27;20249;-59
2020/12/26 07:44:28;;;;;;;21.13;10.30;;;;;;;-0.23;91.27;101457.09;5157587;27;20277;-60
2020/12/26 07:46:56;;;;;;;13.27;8.38;;;;;;;-0.22;91.24;101458.88;5156930;27;20218;-57
2020/12/26 07:49:24;;;;;;;20.45;10.38;;;;;;;-0.23;91.26;101454.56;5157875;27;20247;-57
2020/12/26 07:52:09;;;;;;;18.02;9.98;;;;;;;-0.12;91.26;101464.88;5156366;27;20531;-57
2020/12/26 07:54:36;;;;;;;20.85;10.15;;;;;;;0.09;90.44;101459.28;5137111;27;20525;-58
2020/12/26 07:57:03;;;;;;;18.23;9.25;;;;;;;-0.05;90.75;101467.25;5135858;27;20598;-60
2020/12/26 07:59:30;;;;;;;19.08;9.90;;;;;;;-0.09;90.93;101470.22;5136745;27;20525;-58
2020/12/26 08:01:57;;;;;;;15.50;8.65;;;;;;;-0.22;91.70;101484.25;5135488;27;20230;-57
2020/12/26 08:04:23;;;;;;;17.88;10.15;;;;;;;-0.21;91.61;101480.09;5136754;27;20198;-57
2020/12/26 08:06:51;;;;;;;16.52;8.80;;;;;;;0.06;90.85;101475.88;5135905;27;20575;-57
2020/12/26 08:09:18;;;;;;;17.42;10.18;;;;;;;0.01;91.05;101472.00;5137087;27;20530;-58
2020/12/26 08:11:46;;;;;;;15.25;7.80;;;;;;;-0.06;91.18;101480.69;5136059;27;20289;-59
2020/12/26 08:14:13;;;;;;;17.30;8.95;;;;;;;-0.14;91.57;101474.84;5136430;28;20317;-56
2020/12/26 08:16:40;;;;;;;13.60;7.53;;;;;;;0.15;90.76;101476.75;5138492;27;20228;-58
2020/12/26 08:19:07;;;;;;;13.05;7.43;;;;;;;0.07;90.67;101464.97;5143581;27;20600;-57
2020/12/26 08:21:33;;;;;;;13.40;7.25;;;;;;;-0.04;91.30;101463.94;5142606;27;20209;-57
2020/12/26 08:24:02;;;;;;;18.98;9.95;;;;;;;-0.03;91.11;101465.72;5143245;27;20257;-56
2020/12/26 08:26:31;;;;;;;19.40;9.65;;;;;;;0.08;90.90;101460.03;5142464;27;20218;-60
2020/12/26 08:29:01;;;;;;;12.68;7.07;;;;;;;0.05;90.92;101459.75;5143481;27;20230;-57
2020/12/26 08:31:30;;;;;;;17.45;7.10;;;;;;;0.09;91.24;101464.38;5142727;27;20209;-58
2020/12/26 08:34:01;;;;;;;19.83;8.30;;;;;;;0.07;90.90;101463.34;5142740;27;20718;-59
2020/12/26 08:36:29;;;;;;;16.00;7.30;;;;;;;0.19;90.74;101467.75;5142387;27;20670;-59
2020/12/26 08:38:57;;;;;;;17.80;9.32;;;;;;;0.39;89.98;101462.94;5143587;27;20505;-58
2020/12/26 08:41:25;;;;;;;12.25;6.70;;;;;;;0.25;90.29;101463.28;5161800;27;20552;-57
2020/12/26 08:43:52;;;;;;;13.60;6.93;;;;;;;0.25;90.53;101456.56;5162514;27;20233;-57
2020/12/26 08:46:23;;;;;;;14.48;7.05;;;;;;;0.19;90.84;101458.53;5164030;27;20224;-59
2020/12/26 08:48:50;;;;;;;14.90;7.80;;;;;;;0.15;91.06;101455.56;5163187;27;20250;-58
2020/12/26 08:51:19;;;;;;;12.38;6.25;;;;;;;0.15;91.07;101458.09;5164283;27;20237;-58
2020/12/26 08:53:46;;;;;;;9.77;5.72;;;;;;;0.11;91.19;101454.38;5162987;27;20240;-59
2020/12/26 08:56:13;;;;;;;10.85;6.22;;;;;;;0.07;91.51;101443.03;5163641;27;20502;-58
2020/12/26 08:58:47;;;;;;;18.17;7.25;;;;;;;0.20;91.76;101446.75;5161409;27;20234;-56
2020/12/26 09:01:16;;;;;;;12.20;4.72;;;;;;;0.08;91.78;101429.59;5163578;27;20205;-56
2020/12/26 09:03:48;;;;;;;7.05;3.35;;;;;;;0.11;91.26;101440.03;5162259;27;20274;-56
2020/12/26 09:06:15;;;;;;;14.15;6.20;;;;;;;0.25;91.07;101442.97;5163510;27;20631;-56
2020/12/26 09:08:42;;;;;;;11.05;4.75;;;;;;;0.19;91.23;101447.47;5162937;27;20712;-58
2020/12/26 09:11:10;;;;;;;9.98;4.90;;;;;;;0.20;91.50;101454.34;5163974;27;20201;-56
2020/12/26 09:13:39;;;;;;;10.85;5.85;;;;;;;0.23;91.32;101439.41;5162862;27;20230;-57
2020/12/26 09:16:08;;;;;;;8.52;4.50;;;;;;;0.21;91.38;101438.38;5163359;27;20222;-59
2020/12/26 09:18:42;;;;;;;11.43;4.32;;;;;;;0.20;91.25;101444.19;5162795;27;20240;-59
2020/12/26 09:21:21;;;;;;;10.07;3.83;;;;;;;0.29;91.18;101434.91;5163974;27;20239;-56
2020/12/26 09:23:49;;;;;;;15.00;5.70;;;;;;;0.28;91.23;101422.97;5162277;27;20268;-59
2020/12/26 09:26:17;;;;;;;15.10;4.50;;;;;;;0.32;91.52;101430.13;5163349;27;20250;-58
2020/12/26 09:28:49;;;;;;;8.18;3.10;;;;;;;0.28;91.52;101425.50;5159133;27;20253;-59
2020/12/26 09:31:17;;;;;;;12.52;5.80;;;;;;;0.32;91.33;101419.97;5160713;27;20520;-55
2020/12/26 09:33:44;;;;;;;22.50;4.90;;;;;;;0.25;91.58;101417.56;5158895;27;20230;-57
2020/12/26 09:36:13;;;;;;;10.40;4.90;;;;;;;0.33;91.39;101408.16;5160200;27;20682;-57
2020/12/26 09:38:40;;;;;;;13.48;5.28;;;;;;;0.34;91.50;101410.84;5157513;27;20238;-56
2020/12/26 09:41:17;;;;;;;9.68;5.10;;;;;;;0.35;91.18;101405.00;5160493;27;20503;-57
2020/12/26 09:43:46;;;;;;;9.65;5.00;;;;;;;0.40;90.96;101403.78;5159050;27;20237;-58
2020/12/26 09:46:13;;;;;;;3.72;1.90;;;;;;;0.30;91.40;101401.13;5159715;27;20218;-59
2020/12/26 09:48:43;;;;;;;14.52;6.68;;;;;;;0.36;91.67;101401.72;5158987;27;20245;-56
2020/12/26 09:51:18;;;;;;;15.65;6.03;;;;;;;0.36;91.19;101396.63;5160282;27;20556;-57
2020/12/26 09:53:48;;;;;;;12.38;4.75;;;;;;;0.43;91.17;101392.13;5158940;27;20265;-58
2020/12/26 09:56:15;;;;;;;13.55;4.50;;;;;;;0.45;91.11;101400.81;5159832;27;20310;-57
2020/12/26 09:58:43;;;;;;;12.75;5.25;;;;;;;0.39;91.46;101396.03;5158208;27;20249;-57
2020/12/26 10:01:12;;;;;;;6.85;3.35;;;;;;;0.39;91.21;101391.84;5160108;27;20212;-58
2020/12/26 10:03:40;;;;;;;11.07;4.53;;;;;;;0.42;91.39;101385.25;5158996;27;20321;-58
2020/12/26 10:06:09;;;;;;;11.25;6.05;;;;;;;0.50;91.18;101394.47;5159830;27;20609;-58
2020/12/26 10:08:37;;;;;;;7.47;4.38;;;;;;;0.57;91.10;101381.63;5158717;27;20234;-57
2020/12/26 10:11:03;;;;;;;11.95;6.50;;;;;;;0.56;91.08;101377.25;5159900;27;20190;-57
2020/12/26 10:13:30;;;;;;;21.08;6.70;;;;;;;0.63;90.88;101371.13;5156286;27;20230;-59
2020/12/26 10:15:57;;;;;;;15.00;6.63;;;;;;;0.61;90.92;101365.00;5159449;27;20381;-58
2020/12/26 10:18:23;;;;;;;4.93;2.90;;;;;;;0.62;90.89;101354.97;5158249;27;20259;-59
2020/12/26 10:20:50;;;;;;;5.80;3.50;;;;;;;0.61;91.03;101348.13;5159391;27;20234;-59
2020/12/26 10:23:17;;;;;;;8.23;3.88;;;;;;;0.66;91.12;101341.81;5158326;27;20588;-58
2020/12/26 10:25:49;;;;;;;16.08;5.40;;;;;;;0.64;90.79;101338.25;5159059;27;20226;-59
2020/12/26 10:28:15;;;;;;;15.20;6.70;;;;;;;0.71;90.63;101333.72;5157870;27;20230;-55
2020/12/26 10:30:42;;;;;;;17.92;8.15;;;;;;;0.67;90.96;101337.63;5159425;27;20214;-58
2020/12/26 10:33:09;;;;;;;8.45;4.75;;;;;;;0.64;90.89;101343.31;5157890;27;20240;-58
2020/12/26 10:35:35;;;;;;;14.93;5.70;;;;;;;0.66;90.86;101338.38;5158955;27;20234;-59
2020/12/26 10:38:02;;;;;;;12.82;6.53;;;;;;;0.73;90.77;101334.75;5158024;27;20233;-58
2020/12/26 10:40:29;;;;;;;14.80;6.43;;;;;;;0.68;90.87;101324.19;5158623;27;20202;-57
2020/12/26 10:42:56;;;;;;;12.50;5.90;;;;;;;0.75;90.67;101315.44;5157821;27;20314;-59
2020/12/26 10:45:23;;;;;;;20.35;7.10;;;;;;;0.69;91.10;101315.78;5158962;27;20217;-55
2020/12/26 10:47:49;;;;;;;12.82;7.15;;;;;;;0.65;91.23;101301.94;5156795;27;20230;-58
2020/12/26 10:50:16;;;;;;;13.70;6.97;;;;;;;0.67;91.14;101297.88;5159042;27;20290;-58
2020/12/26 10:52:43;;;;;;;9.18;5.40;;;;;;;0.77;90.82;101303.78;5157402;27;20657;-58
2020/12/26 10:55:12;;;;;;;9.68;5.38;;;;;;;0.78;91.01;101305.56;5158200;27;20253;-57
2020/12/26 10:57:39;;;;;;;12.73;6.10;;;;;;;0.77;90.88;101302.13;5153852;27;20230;-58
2020/12/26 11:00:06;;;;;;;10.98;5.50;;;;;;;0.85;90.55;101302.81;5158449;27;20201;-58
2020/12/26 11:02:33;;;;;;;9.48;3.58;;;;;;;0.80;90.69;101296.44;5153125;27;20239;-59
2020/12/26 11:05:00;;;;;;;10.98;5.15;;;;;;;0.86;90.73;101296.97;5158136;27;20673;-57
2020/12/26 11:07:26;;;;;;;11.30;4.82;;;;;;;0.85;90.78;101287.56;5157289;27;20306;-58
2020/12/26 11:09:53;;;;;;;6.25;3.10;;;;;;;0.80;90.92;101277.00;5158454;27;20653;-59
2020/12/26 11:12:19;;;;;;;15.90;6.60;;;;;;;0.88;90.93;101271.72;5157581;27;20250;-56
2020/12/26 11:14:46;;;;;;;11.23;5.75;;;;;;;0.94;90.73;101275.69;5158096;27;20222;-57
2020/12/26 11:17:14;;;;;;;14.93;6.72;;;;;;;1.06;90.46;101277.53;5157399;27;20233;-58
2020/12/26 11:19:41;;;;;;;12.98;6.32;;;;;;;1.03;90.56;101270.53;5158383;27;20194;-59